Airfield :
LOGIN :

Register | Disclaimer

   EN    FR    IT 

 










Legend :    VFR   Marginal VFR   IFR   Intensive IFR   Very Intensive IFR
Visi :
Ceiling :
>= 8 km
>= 3000ft
5 to 8 km
1000 to 3000 ft
1500m to 5 km
500 to 1000 ft
800 to 1500m
200 to 500 ft
< 800m
< 200 ft
Symbols :   Thunderstorms  Fog  Heavy snow  Heavy precipitations  Wind > 20 kt
SIGMETs :     Misc.  Thunderstorms  Icing  Turbulence  Mountain Waves  Volcanic Ashes







- Airport Elevation : 162 ft
- IATA code : BOD
- Download approach charts


LFBD - Bordeaux / Merignac

CURRENT METAR :
  • 221330Z AUTO 12015KT CAVOK 20/07 Q1000 BECMG 12015G25KT

EXPIRED METARs :
  • 221300Z AUTO 13014KT CAVOK 20/07 Q1000 BECMG 12015G25KT
  • 221230Z AUTO 11015KT CAVOK 20/07 Q1000 BECMG 12015G25KT
  • 221200Z AUTO 12014KT CAVOK 20/07 Q1001 BECMG 12015G25KT
  • 221130Z AUTO 11015KT CAVOK 19/07 Q1001 BECMG 12015G25KT
  • 221100Z AUTO 10013KT 050V130 9999 FEW008 BKN098 18/07 Q1002 BECMG 12015G25KT

TAF TAF LFBD
Valid from the 22 at 12:00 until the 23 at 18:00 UTC


221100Z 2212/2318 12015G25KT CAVOK TX21/2312Z TN13/2306Z
BECMG 2217/2219 14012KT
TEMPO 2309/2312 -SHRA BKN050TCU
TEMPO 2312/2318 4000 SHRA BKN030TCU
PROB30
TEMPO 2313/2318 VRB15G30KT 2000 TSRA SCT010 BKN020CB
ATIS : +33 5 57 92 81 04
No reported NOTAMs for that airfield.



MET'MAP, your aeronautical weather chart ! - Copyright ORBIFLY December 2007 - Disclaimer

ORBIFLY MET'MAP TEAM :

Programming & Development : Alexandra Zaïnal
Concept & Development : Baudouin d'Aumeries
Co-Development & Prog : Marc-Olivier Méhu
Technical & hardware support : Manuel Goepfert

Contact : metmap@orbifly.com




SOURCES & CREDITS :

   NOAA